createdAt,value
2018-12-23T00:01:50.721Z,99.61
2018-12-23T00:04:23.382Z,99.49
2018-12-23T00:06:49.154Z,99.97
2018-12-23T00:09:14.878Z,99.72
2018-12-23T00:11:40.714Z,99.32
2018-12-23T00:14:06.439Z,99.95
2018-12-23T00:16:32.144Z,99.40
2018-12-23T00:18:57.874Z,99.09
2018-12-23T00:21:23.689Z,99.92
2018-12-23T00:23:49.431Z,99.86
2018-12-23T00:26:15.166Z,99.86
2018-12-23T00:28:40.918Z,98.79
2018-12-23T00:31:06.686Z,98.89
2018-12-23T00:33:32.555Z,99.83
2018-12-23T00:35:58.334Z,99.54
2018-12-23T00:38:24.114Z,99.27
2018-12-23T00:40:49.938Z,99.65
2018-12-23T00:43:15.754Z,99.49
2018-12-23T00:45:41.578Z,99.21
2018-12-23T00:48:07.418Z,98.77
2018-12-23T00:50:33.130Z,99.15
2018-12-23T00:53:05.091Z,99.89
2018-12-23T00:55:30.810Z,99.61
2018-12-23T00:57:56.669Z,98.90
2018-12-23T01:00:22.420Z,98.94
2018-12-23T01:02:48.189Z,99.72
2018-12-23T01:05:14.019Z,99.46
2018-12-23T01:07:39.730Z,99.62
2018-12-23T01:10:12.586Z,99.14
2018-12-23T01:12:38.326Z,98.94
2018-12-23T01:15:04.758Z,99.23
2018-12-23T01:17:30.498Z,98.71
2018-12-23T01:19:56.279Z,98.93
2018-12-23T01:22:31.081Z,99.34
2018-12-23T01:24:56.938Z,99.70
2018-12-23T01:27:22.785Z,98.93
2018-12-23T01:29:48.646Z,99.46
2018-12-23T01:32:14.423Z,99.07
2018-12-23T01:34:40.163Z,99.08
2018-12-23T01:37:06.008Z,99.95
2018-12-23T01:39:31.758Z,98.94
2018-12-23T01:41:57.578Z,99.20
2018-12-23T01:44:23.290Z,98.96
2018-12-23T01:46:49.031Z,98.69
2018-12-23T01:49:15.244Z,99.02
2018-12-23T01:51:41.014Z,98.97
2018-12-23T01:54:06.763Z,98.85
2018-12-23T01:56:33.569Z,99.75
2018-12-23T01:58:59.448Z,99.03
2018-12-23T02:01:25.282Z,99.67
2018-12-23T02:03:51.118Z,99.91
2018-12-23T02:06:16.854Z,99.17
2018-12-23T02:08:42.566Z,99.20
2018-12-23T02:11:08.398Z,99.71
2018-12-23T02:13:34.118Z,100.00
2018-12-23T02:15:59.970Z,98.90
2018-12-23T02:18:25.822Z,100.00
2018-12-23T02:20:52.322Z,100.00
2018-12-23T02:23:19.797Z,99.57
2018-12-23T02:25:45.529Z,100.00
2018-12-23T02:28:11.283Z,99.85
2018-12-23T02:30:37.016Z,100.00
2018-12-23T02:33:03.775Z,99.71
2018-12-23T02:35:29.610Z,100.00
2018-12-23T02:37:55.347Z,100.00
2018-12-23T02:40:21.222Z,100.00
2018-12-23T02:42:46.963Z,99.80
2018-12-23T02:45:12.708Z,99.33
2018-12-23T02:47:38.532Z,99.75
2018-12-23T02:50:04.366Z,100.00
2018-12-23T02:52:30.102Z,99.70
2018-12-23T02:54:55.824Z,100.00
2018-12-23T02:57:21.536Z,99.33
2018-12-23T02:59:47.367Z,99.36
2018-12-23T03:02:13.096Z,100.00
2018-12-23T03:04:38.850Z,100.00
2018-12-23T03:07:04.575Z,100.00
2018-12-23T03:09:30.331Z,99.87
2018-12-23T03:11:56.061Z,99.72
2018-12-23T03:14:21.871Z,99.48
2018-12-23T03:16:47.703Z,99.46
2018-12-23T03:19:13.434Z,99.88
2018-12-23T03:21:39.163Z,99.26
2018-12-23T03:24:04.992Z,100.00
2018-12-23T03:26:30.729Z,99.43
2018-12-23T03:28:56.442Z,100.00
2018-12-23T03:31:22.171Z,99.32
2018-12-23T03:33:48.019Z,99.71
2018-12-23T03:36:15.330Z,100.00
2018-12-23T03:38:41.379Z,100.00
2018-12-23T03:41:07.222Z,99.44
2018-12-23T03:43:33.034Z,99.75
2018-12-23T03:45:58.758Z,99.70
2018-12-23T03:48:24.503Z,100.00
2018-12-23T03:50:50.224Z,99.06
2018-12-23T03:53:16.080Z,99.06
2018-12-23T03:55:41.907Z,99.35
2018-12-23T03:58:07.639Z,99.35
2018-12-23T04:00:33.379Z,100.00
2018-12-23T04:02:59.123Z,100.00
2018-12-23T04:05:24.858Z,100.00
2018-12-23T04:07:50.571Z,99.77
2018-12-23T04:10:16.333Z,99.98
2018-12-23T04:12:42.104Z,99.97
2018-12-23T04:15:07.959Z,99.87
2018-12-23T04:17:33.707Z,99.71
2018-12-23T04:19:59.530Z,99.01
2018-12-23T04:22:25.274Z,99.81
2018-12-23T04:24:51.007Z,99.01
2018-12-23T04:27:16.740Z,98.98
2018-12-23T04:29:42.603Z,99.12
2018-12-23T04:32:08.343Z,99.54
2018-12-23T04:34:34.187Z,99.75
2018-12-23T04:36:59.934Z,99.86
2018-12-23T04:39:25.680Z,98.96
2018-12-23T04:41:51.443Z,99.02
2018-12-23T04:44:17.192Z,99.65
2018-12-23T04:46:42.933Z,99.51
2018-12-23T04:49:08.667Z,98.74
2018-12-23T04:51:34.513Z,98.92
2018-12-23T04:54:00.251Z,99.70
2018-12-23T04:56:25.977Z,99.23
2018-12-23T04:58:51.807Z,99.93
2018-12-23T05:01:17.535Z,99.36
2018-12-23T05:03:43.303Z,99.57
2018-12-23T05:06:09.093Z,99.67
2018-12-23T05:08:34.818Z,99.19
2018-12-23T05:11:00.559Z,98.61
2018-12-23T05:13:26.370Z,98.87
2018-12-23T05:15:52.097Z,99.55
2018-12-23T05:18:18.052Z,99.36
2018-12-23T05:20:43.846Z,98.73
2018-12-23T05:23:09.573Z,99.06
2018-12-23T05:25:35.296Z,99.47
2018-12-23T05:28:01.023Z,98.62
2018-12-23T05:30:26.751Z,99.26
2018-12-23T05:32:52.490Z,98.49
2018-12-23T05:35:18.299Z,99.60
2018-12-23T05:37:44.026Z,99.43
2018-12-23T05:40:09.750Z,98.63
2018-12-23T05:42:35.476Z,99.42
2018-12-23T05:45:01.321Z,98.58
2018-12-23T05:47:27.151Z,98.35
2018-12-23T05:49:52.875Z,99.29
2018-12-23T05:52:18.605Z,98.44
2018-12-23T05:54:44.426Z,98.31
2018-12-23T05:57:10.165Z,99.10
2018-12-23T05:59:35.886Z,98.72
2018-12-23T06:02:01.710Z,99.33
2018-12-23T06:04:27.427Z,99.55
2018-12-23T06:07:00.749Z,99.68
2018-12-23T06:09:20.886Z,99.62
2018-12-23T06:11:46.627Z,99.70
2018-12-23T06:14:12.350Z,98.43
2018-12-23T06:16:38.078Z,98.35
2018-12-23T06:19:03.797Z,97.96
2018-12-23T06:21:29.774Z,98.83
2018-12-23T06:23:55.569Z,98.09
2018-12-23T06:26:21.282Z,97.88
2018-12-23T06:28:47.102Z,97.64
2018-12-23T06:31:12.823Z,98.56
2018-12-23T06:33:45.578Z,98.60
2018-12-23T06:36:11.307Z,98.80
2018-12-23T06:38:37.037Z,97.78
2018-12-23T06:41:02.867Z,97.80
2018-12-23T06:43:28.603Z,97.90
2018-12-23T06:45:54.318Z,97.75
2018-12-23T06:48:20.063Z,98.14
2018-12-23T06:50:52.670Z,97.73
2018-12-23T06:53:18.409Z,98.47
2018-12-23T06:55:44.119Z,98.12
2018-12-23T06:58:09.850Z,98.84
2018-12-23T07:00:35.566Z,98.69
2018-12-23T07:03:01.291Z,97.61
2018-12-23T07:05:27.110Z,97.86
2018-12-23T07:07:52.935Z,99.10
2018-12-23T07:10:18.662Z,98.62
2018-12-23T07:12:44.386Z,98.19
2018-12-23T07:15:10.111Z,99.03
2018-12-23T07:17:35.847Z,98.18
2018-12-23T07:20:01.775Z,99.06
2018-12-23T07:22:27.502Z,98.42
2018-12-23T07:24:53.223Z,99.30
2018-12-23T07:27:18.954Z,98.77
2018-12-23T07:29:44.670Z,98.62
2018-12-23T07:32:10.407Z,99.16
2018-12-23T07:34:36.120Z,98.38
2018-12-23T07:37:01.845Z,99.15
2018-12-23T07:39:27.563Z,98.18
2018-12-23T07:41:53.399Z,99.03
2018-12-23T07:44:19.118Z,98.06
2018-12-23T07:46:44.834Z,98.67
2018-12-23T07:49:10.571Z,98.37
2018-12-23T07:51:36.284Z,98.48
2018-12-23T07:54:02.011Z,98.96
2018-12-23T07:56:27.739Z,98.07
2018-12-23T07:58:53.484Z,98.34
2018-12-23T08:01:19.206Z,98.44
2018-12-23T08:03:44.925Z,98.63
2018-12-23T08:06:10.740Z,97.92
2018-12-23T08:08:36.460Z,98.78
2018-12-23T08:11:02.183Z,98.75
2018-12-23T08:13:28.011Z,98.59
2018-12-23T08:15:53.737Z,97.78
2018-12-23T08:18:19.474Z,97.61
2018-12-23T08:20:45.246Z,98.21
2018-12-23T08:23:10.979Z,98.45
2018-12-23T08:25:36.699Z,98.52
2018-12-23T08:28:02.542Z,97.44
2018-12-23T08:30:28.279Z,97.61
2018-12-23T08:32:54.001Z,98.44
2018-12-23T08:35:19.826Z,98.03
2018-12-23T08:37:45.552Z,97.57
2018-12-23T08:40:11.274Z,97.49
2018-12-23T08:42:36.994Z,98.16
2018-12-23T08:45:03.310Z,97.72
2018-12-23T08:47:29.028Z,98.28
2018-12-23T08:49:54.875Z,97.42
2018-12-23T08:52:20.599Z,97.30
2018-12-23T08:54:46.335Z,97.18
2018-12-23T08:57:12.151Z,97.31
2018-12-23T08:59:37.878Z,97.91
2018-12-23T09:02:04.407Z,97.85
2018-12-23T09:04:30.145Z,96.82
2018-12-23T09:06:55.859Z,96.62
2018-12-23T09:09:21.575Z,97.23
2018-12-23T09:11:47.300Z,96.85
2018-12-23T09:14:13.138Z,96.90
2018-12-23T09:16:38.848Z,97.14
2018-12-23T09:19:04.579Z,97.61
2018-12-23T09:21:30.319Z,96.95
2018-12-23T09:24:03.200Z,97.12
2018-12-23T09:26:28.918Z,97.46
2018-12-23T09:31:27.127Z,97.77
2018-12-23T09:33:52.850Z,96.74
2018-12-23T09:36:18.598Z,97.42
2018-12-23T09:38:44.340Z,97.28
2018-12-23T09:41:10.163Z,97.09
2018-12-23T09:43:35.894Z,96.72
2018-12-23T09:46:01.831Z,96.58
2018-12-23T09:48:27.567Z,97.53
2018-12-23T09:50:53.374Z,97.00
2018-12-23T09:53:19.082Z,97.66
2018-12-23T09:55:44.798Z,97.10
2018-12-23T09:58:10.499Z,97.45
2018-12-23T10:00:36.219Z,97.06
2018-12-23T10:03:02.050Z,97.17
2018-12-23T10:05:27.766Z,96.54
2018-12-23T10:07:53.486Z,96.95
2018-12-23T10:10:19.235Z,98.05
2018-12-23T10:12:44.952Z,98.45
2018-12-23T10:15:10.818Z,97.69
2018-12-23T10:17:36.555Z,98.43
2018-12-23T10:20:03.909Z,97.85
2018-12-23T10:22:29.627Z,97.84
2018-12-23T10:24:55.448Z,98.92
2018-12-23T10:27:21.162Z,99.04
2018-12-23T10:29:46.884Z,98.90
2018-12-23T10:32:12.603Z,98.14
2018-12-23T10:34:38.326Z,98.88
2018-12-23T10:37:04.156Z,98.05
2018-12-23T10:39:29.979Z,98.51
2018-12-23T10:41:55.752Z,98.30
2018-12-23T10:44:21.551Z,98.22
2018-12-23T10:46:47.268Z,98.75
2018-12-23T10:49:13.552Z,99.44
2018-12-23T10:51:39.276Z,98.34
2018-12-23T10:54:05.144Z,98.65
2018-12-23T10:56:31.255Z,99.45
2018-12-23T10:58:56.971Z,98.20
2018-12-23T11:01:22.794Z,99.04
2018-12-23T11:03:48.527Z,99.01
2018-12-23T11:06:14.471Z,99.35
2018-12-23T11:08:40.197Z,99.27
2018-12-23T11:11:06.025Z,98.15
2018-12-23T11:13:31.910Z,98.00
2018-12-23T11:15:57.687Z,97.88
2018-12-23T11:18:23.435Z,98.42
2018-12-23T11:20:49.166Z,98.25
2018-12-23T11:23:14.982Z,97.78
2018-12-23T11:25:40.818Z,98.22
2018-12-23T11:28:06.536Z,97.95
2018-12-23T11:30:32.362Z,97.91
2018-12-23T11:32:58.087Z,97.25
2018-12-23T11:35:23.830Z,96.78
2018-12-23T11:37:49.548Z,97.38
2018-12-23T11:40:15.370Z,97.30
2018-12-23T11:42:41.082Z,97.65
2018-12-23T11:45:06.813Z,97.77
2018-12-23T11:47:32.542Z,96.94
2018-12-23T11:49:58.278Z,97.39
2018-12-23T11:52:24.139Z,96.85
2018-12-23T11:54:49.858Z,96.87
2018-12-23T11:57:15.598Z,96.50
2018-12-23T11:59:41.336Z,97.09
2018-12-23T12:02:15.054Z,96.45
2018-12-23T12:04:34.801Z,96.45
2018-12-23T12:07:00.631Z,96.61
2018-12-23T12:09:26.341Z,97.51
2018-12-23T12:11:52.076Z,96.78
2018-12-23T12:14:17.800Z,97.40
2018-12-23T12:16:43.618Z,96.90
2018-12-23T12:19:09.335Z,96.46
2018-12-23T12:21:35.053Z,96.60
2018-12-23T12:24:00.776Z,97.43
2018-12-23T12:26:26.500Z,96.50
2018-12-23T12:28:52.236Z,96.00
2018-12-23T12:31:18.054Z,96.13
2018-12-23T12:33:43.766Z,95.90
2018-12-23T12:36:10.748Z,95.89
2018-12-23T12:38:37.480Z,96.47
2018-12-23T12:41:03.976Z,96.26
2018-12-23T12:43:30.747Z,96.10
2018-12-23T12:46:00.720Z,96.60
2018-12-23T12:48:26.746Z,96.14
2018-12-23T12:50:53.068Z,97.04
2018-12-23T12:53:19.469Z,96.28
2018-12-23T12:55:46.082Z,96.36
2018-12-23T12:58:12.566Z,97.51
2018-12-23T13:00:38.410Z,96.41
2018-12-23T13:03:06.929Z,97.09
2018-12-23T13:05:33.461Z,96.39
2018-12-23T13:08:00.305Z,96.20
2018-12-23T13:10:26.199Z,96.48
2018-12-23T13:12:52.912Z,95.82
2018-12-23T13:15:18.759Z,96.37
2018-12-23T13:17:45.507Z,95.98
2018-12-23T13:20:11.929Z,95.94
2018-12-23T13:22:37.688Z,96.47
2018-12-23T13:25:03.722Z,96.33
2018-12-23T13:27:29.440Z,95.81
2018-12-23T13:29:55.174Z,96.25
2018-12-23T13:32:20.910Z,95.27
2018-12-23T13:34:46.633Z,95.91
2018-12-23T13:37:12.356Z,96.26
2018-12-23T13:39:38.343Z,96.02
2018-12-23T13:42:08.101Z,96.00
2018-12-23T13:48:50.485Z,96.60
2018-12-23T13:51:56.129Z,96.43
2018-12-23T13:55:01.873Z,95.41
2018-12-23T13:58:27.395Z,95.21
2018-12-23T14:01:33.052Z,94.72
2018-12-23T14:04:40.614Z,95.02
2018-12-23T14:13:47.247Z,95.71
2018-12-23T14:16:13.134Z,96.17
2018-12-23T14:18:39.014Z,96.45
2018-12-23T14:21:04.896Z,96.57
2018-12-23T14:23:30.777Z,96.64
2018-12-23T14:25:56.661Z,96.62
2018-12-23T14:28:22.600Z,96.69
2018-12-23T14:33:27.603Z,96.83
2018-12-23T14:35:53.497Z,96.81
2018-12-23T14:38:19.467Z,96.99
2018-12-23T14:40:45.388Z,97.14
2018-12-23T14:43:11.281Z,97.08
2018-12-23T14:45:37.173Z,97.29
2018-12-23T14:48:03.471Z,97.31
2018-12-23T14:50:29.410Z,97.35
2018-12-23T14:52:55.300Z,97.21
2018-12-23T14:55:21.171Z,97.26
2018-12-23T14:57:47.064Z,97.39
2018-12-23T15:00:12.936Z,97.34
2018-12-23T15:02:38.828Z,97.37
2018-12-23T15:05:46.385Z,97.56
2018-12-23T15:08:12.268Z,97.66
2018-12-23T15:10:38.143Z,97.87
2018-12-23T15:13:04.037Z,97.75
2018-12-23T15:15:29.908Z,97.78
2018-12-23T15:17:55.808Z,97.95
2018-12-23T15:20:21.701Z,97.90
2018-12-23T15:22:47.592Z,97.92
2018-12-23T15:25:13.469Z,97.85
2018-12-23T15:27:59.264Z,97.97
2018-12-23T15:30:25.143Z,97.97
2018-12-23T15:32:51.035Z,97.85
2018-12-23T15:35:16.907Z,97.81
2018-12-23T15:37:42.806Z,97.72
2018-12-23T15:40:08.685Z,97.74
2018-12-23T15:42:34.573Z,97.76
2018-12-23T15:45:00.475Z,97.72
2018-12-23T15:47:26.333Z,97.69
2018-12-23T15:49:52.230Z,97.70
2018-12-23T15:52:18.114Z,97.74
2018-12-23T15:54:46.401Z,97.71
2018-12-23T15:57:11.786Z,97.70
2018-12-23T15:59:37.653Z,97.64
2018-12-23T16:02:03.531Z,97.83
2018-12-23T16:04:29.430Z,97.75
2018-12-23T16:06:55.306Z,97.71
2018-12-23T16:09:21.928Z,97.73
2018-12-23T16:11:47.861Z,97.84
2018-12-23T16:16:52.273Z,97.97
2018-12-23T16:19:18.232Z,98.04
2018-12-23T16:21:44.095Z,97.65
2018-12-23T16:24:10.000Z,97.66
2018-12-23T16:26:35.884Z,97.75
2018-12-23T16:29:01.774Z,97.99
2018-12-23T16:31:27.653Z,98.05
2018-12-23T16:33:53.545Z,98.04
2018-12-23T16:36:19.435Z,97.99
2018-12-23T16:38:45.345Z,98.07
2018-12-23T16:41:11.212Z,98.27
2018-12-23T16:43:37.110Z,98.37
2018-12-23T16:46:02.985Z,98.41
2018-12-23T16:48:28.898Z,98.48
2018-12-23T16:50:54.774Z,98.42
2018-12-23T16:53:20.669Z,98.31
2018-12-23T16:55:46.553Z,98.38
2018-12-23T16:58:12.427Z,98.26
2018-12-23T17:00:38.429Z,98.23
2018-12-23T17:03:04.309Z,98.22
2018-12-23T17:05:30.200Z,98.43
2018-12-23T17:07:56.175Z,98.38
2018-12-23T17:10:22.073Z,98.31
2018-12-23T17:12:47.959Z,98.28
2018-12-23T17:15:13.930Z,98.39
2018-12-23T17:17:39.819Z,98.32
2018-12-23T17:20:47.393Z,98.42
2018-12-23T17:23:13.264Z,98.54
2018-12-23T17:25:39.159Z,98.46
2018-12-23T17:28:05.031Z,98.41
2018-12-23T17:30:30.919Z,98.53
2018-12-23T17:32:56.791Z,98.49
2018-12-23T17:35:22.670Z,98.43
2018-12-23T17:37:48.576Z,98.52
2018-12-23T17:40:16.537Z,98.61
2018-12-23T17:42:42.326Z,98.65
2018-12-23T17:45:08.218Z,98.75
2018-12-23T17:47:34.093Z,98.73
2018-12-23T17:49:59.998Z,98.81
2018-12-23T17:52:25.874Z,98.78
2018-12-23T17:54:51.757Z,98.76
2018-12-23T17:57:17.642Z,98.72
2018-12-23T17:59:43.515Z,98.73
2018-12-23T18:02:09.415Z,98.74
2018-12-23T18:04:35.284Z,98.77
2018-12-23T18:09:34.677Z,98.91
2018-12-23T18:12:00.559Z,98.80
2018-12-23T18:14:26.430Z,98.86
2018-12-23T18:16:52.311Z,98.79
2018-12-23T18:19:18.193Z,98.82
2018-12-23T18:21:44.085Z,98.82
2018-12-23T18:24:09.953Z,98.33
2018-12-23T18:26:35.833Z,98.82
2018-12-23T18:29:21.603Z,98.69
2018-12-23T18:31:47.486Z,98.69
2018-12-23T18:34:13.368Z,98.79
2018-12-23T18:36:39.257Z,98.80
2018-12-23T18:39:05.222Z,98.80
2018-12-23T18:41:31.116Z,98.83
2018-12-23T18:43:56.983Z,98.78
2018-12-23T18:46:22.874Z,98.74
2018-12-23T18:48:48.769Z,98.73
2018-12-23T18:51:14.648Z,98.77
2018-12-23T18:53:40.527Z,99.00
2018-12-23T18:56:27.522Z,99.02
2018-12-23T18:58:53.397Z,99.02
2018-12-23T19:01:19.295Z,98.94
2018-12-23T19:03:45.272Z,98.94
2018-12-23T19:06:11.375Z,98.88
2018-12-23T19:12:44.078Z,99.10
2018-12-23T19:19:36.679Z,99.06
2018-12-23T19:22:42.336Z,99.09
2018-12-23T19:25:47.980Z,99.02
2018-12-23T19:32:08.971Z,99.33
2018-12-23T19:35:14.607Z,99.35
2018-12-23T19:38:22.170Z,99.42
2018-12-23T19:41:29.755Z,99.30
2018-12-23T19:44:37.314Z,99.28
2018-12-23T19:47:42.967Z,99.39
2018-12-23T19:50:48.653Z,99.46
2018-12-23T19:53:54.304Z,99.39
2018-12-23T19:56:59.945Z,99.28
2018-12-23T20:00:07.503Z,99.36
2018-12-23T20:03:13.137Z,99.42
2018-12-23T20:06:20.690Z,99.35
2018-12-23T20:09:28.238Z,99.28
2018-12-23T20:12:35.779Z,99.24
2018-12-23T20:15:43.331Z,99.22
2018-12-23T20:18:48.978Z,99.21
2018-12-23T20:21:56.525Z,99.15
2018-12-23T20:25:02.174Z,99.15
2018-12-23T20:28:09.730Z,99.24
2018-12-23T20:37:44.446Z,98.63
2018-12-23T20:40:50.109Z,98.79
2018-12-23T20:43:55.749Z,98.76
2018-12-23T20:47:01.422Z,98.77
2018-12-23T20:50:09.163Z,98.80
2018-12-23T20:53:14.813Z,98.82
2018-12-23T20:56:20.474Z,98.85
2018-12-23T21:02:53.201Z,98.88
2018-12-23T21:06:18.742Z,98.83
2018-12-23T21:09:26.284Z,98.93
2018-12-23T21:12:31.942Z,98.96
2018-12-23T21:15:37.592Z,98.98
2018-12-23T21:18:45.146Z,99.02
2018-12-23T21:21:50.802Z,98.95
2018-12-23T21:25:16.329Z,98.95
2018-12-23T21:28:23.888Z,98.77
2018-12-23T21:34:42.702Z,98.67
2018-12-23T21:37:50.693Z,98.64
2018-12-23T21:40:56.403Z,98.63
2018-12-23T21:47:16.000Z,98.39
2018-12-23T21:50:21.653Z,98.40
2018-12-23T21:56:42.471Z,98.39
2018-12-23T21:59:50.030Z,98.31
2018-12-23T22:02:55.696Z,98.29
2018-12-23T22:06:23.796Z,98.20
2018-12-23T22:13:02.911Z,98.26
2018-12-23T22:15:28.804Z,98.29
2018-12-23T22:17:55.857Z,98.23
2018-12-23T22:20:22.470Z,98.13
2018-12-23T22:22:48.338Z,97.97
2018-12-23T22:25:14.233Z,97.92
2018-12-23T22:27:40.114Z,97.87
2018-12-23T22:30:06.010Z,97.72
2018-12-23T22:32:31.888Z,97.77
2018-12-23T22:34:57.769Z,97.76
2018-12-23T22:37:23.637Z,97.77
2018-12-23T22:39:49.526Z,97.88
2018-12-23T22:42:15.397Z,97.77
2018-12-23T22:44:41.288Z,97.76
2018-12-23T22:47:07.152Z,98.26
2018-12-23T22:49:33.053Z,97.97
2018-12-23T22:51:58.919Z,97.91
2018-12-23T22:54:24.818Z,97.80
2018-12-23T22:56:50.698Z,97.64
2018-12-23T22:59:16.580Z,97.68
2018-12-23T23:01:42.547Z,97.48
2018-12-23T23:04:08.424Z,97.51
2018-12-23T23:06:34.422Z,97.39
2018-12-23T23:09:00.294Z,97.43
2018-12-23T23:11:27.447Z,97.41
2018-12-23T23:13:53.956Z,97.72
2018-12-23T23:16:19.847Z,97.65
2018-12-23T23:18:46.043Z,97.77
2018-12-23T23:21:11.931Z,97.51
2018-12-23T23:23:37.796Z,97.59
2018-12-23T23:26:03.698Z,97.51
2018-12-23T23:28:29.564Z,97.60
2018-12-23T23:30:55.468Z,97.51
2018-12-23T23:33:21.338Z,97.59
2018-12-23T23:35:47.237Z,97.64
2018-12-23T23:38:13.107Z,97.50
2018-12-23T23:40:38.998Z,97.50
2018-12-23T23:43:04.871Z,97.61
2018-12-23T23:45:50.646Z,97.66
2018-12-23T23:48:16.527Z,97.66
2018-12-23T23:50:42.414Z,97.79
2018-12-23T23:53:08.284Z,97.89
2018-12-23T23:55:34.155Z,97.78
2018-12-23T23:58:00.046Z,97.92
